N40AV KBHM-
Flight info
| Callsign | N40AV |
|---|---|
| Flight time | N/A |
| Altitude | VFR |
| Route | VFR S |
| Aircraft | R66/L-DOV/C |
Departure
| Time | 2026-04-25 01:27 |
|---|---|
| Airport | Birmingham-Shuttlesworth International Airport (KBHM) |
Arrival
| Time | N/A |
|---|---|
| Airport | - |
| Time | Latitude | Longitude | Altitude | Speed | Heading |
|---|---|---|---|---|---|
| 2026-04-25 01:24 | 33.56631 | -86.74328 | 669 ft | 0 kts | 327° |
| 2026-04-25 01:25 | 33.56646 | -86.74329 | 706 ft | 5 kts | 2° |
| 2026-04-25 01:26 | 33.56718 | -86.74210 | 787 ft | 34 kts | 78° |
| 2026-04-25 01:26 | 33.56591 | -86.73856 | 878 ft | 61 kts | 134° |
| 2026-04-25 01:26 | 33.56142 | -86.73588 | 1028 ft | 83 kts | 161° |
| 2026-04-25 01:26 | 33.55525 | -86.73464 | 1154 ft | 98 kts | 171° |
| 2026-04-25 01:27 | 33.54815 | -86.73404 | 1267 ft | 105 kts | 176° |
| 2026-04-25 01:27 | 33.54066 | -86.73409 | 1379 ft | 108 kts | 181° |
| 2026-04-25 01:27 | 33.53327 | -86.73532 | 1482 ft | 109 kts | 191° |
| 2026-04-25 01:28 | 33.51915 | -86.74164 | 1752 ft | 109 kts | 206° |
| 2026-04-25 01:28 | 33.51263 | -86.74625 | 1840 ft | 110 kts | 210° |
| 2026-04-25 01:28 | 33.50610 | -86.75086 | 1954 ft | 110 kts | 204° |
| 2026-04-25 01:28 | 33.49894 | -86.75419 | 2005 ft | 111 kts | 195° |
| 2026-04-25 01:29 | 33.49127 | -86.75637 | 2008 ft | 111 kts | 188° |
| 2026-04-25 01:29 | 33.48369 | -86.75758 | 2020 ft | 111 kts | 185° |
| 2026-04-25 01:29 | 33.47588 | -86.75723 | 2021 ft | 112 kts | 175° |
| 2026-04-25 01:29 | 33.46820 | -86.75561 | 2024 ft | 113 kts | 171° |
| 2026-04-25 01:30 | 33.46042 | -86.75384 | 2023 ft | 113 kts | 173° |
| 2026-04-25 01:30 | 33.45255 | -86.75323 | 2004 ft | 113 kts | 180° |
| 2026-04-25 01:30 | 33.44468 | -86.75391 | 1982 ft | 113 kts | 189° |
| 2026-04-25 01:30 | 33.43703 | -86.75581 | 1989 ft | 111 kts | 195° |
| 2026-04-25 01:31 | 33.42976 | -86.75865 | 1997 ft | 111 kts | 200° |
| 2026-04-25 01:31 | 33.42256 | -86.76219 | 1983 ft | 112 kts | 202° |
| 2026-04-25 01:31 | 33.41542 | -86.76567 | 1994 ft | 110 kts | 200° |
| 2026-04-25 01:31 | 33.40817 | -86.76850 | 1996 ft | 109 kts | 197° |
| 2026-04-25 01:32 | 33.40073 | -86.77074 | 2004 ft | 110 kts | 192° |
| 2026-04-25 01:32 | 33.39323 | -86.77236 | 2013 ft | 110 kts | 189° |
| 2026-04-25 01:32 | 33.38555 | -86.77344 | 2011 ft | 111 kts | 187° |
| 2026-04-25 01:32 | 33.37788 | -86.77414 | 2023 ft | 110 kts | 185° |
| 2026-04-25 01:33 | 33.37018 | -86.77451 | 2029 ft | 111 kts | 182° |
| 2026-04-25 01:33 | 33.36245 | -86.77456 | 2031 ft | 110 kts | 181° |
| 2026-04-25 01:33 | 33.35484 | -86.77449 | 2035 ft | 110 kts | 181° |
| 2026-04-25 01:33 | 33.34715 | -86.77462 | 2052 ft | 111 kts | 182° |
| 2026-04-25 01:34 | 33.33935 | -86.77484 | 2027 ft | 114 kts | 182° |
| 2026-04-25 01:34 | 33.33129 | -86.77503 | 2020 ft | 114 kts | 182° |
| 2026-04-25 01:34 | 33.32369 | -86.77611 | 2054 ft | 111 kts | 197° |
| 2026-04-25 01:34 | 33.31652 | -86.77951 | 2065 ft | 110 kts | 207° |
| 2026-04-25 01:35 | 33.30996 | -86.78417 | 2085 ft | 109 kts | 214° |
| 2026-04-25 01:35 | 33.30399 | -86.78966 | 2101 ft | 108 kts | 221° |
| 2026-04-25 01:35 | 33.29860 | -86.79596 | 2117 ft | 108 kts | 227° |
| 2026-04-25 01:35 | 33.29370 | -86.80278 | 2102 ft | 110 kts | 228° |
| 2026-04-25 01:36 | 33.28815 | -86.80895 | 2107 ft | 109 kts | 216° |
| 2026-04-25 01:36 | 33.28150 | -86.81349 | 2061 ft | 113 kts | 204° |
| 2026-04-25 01:36 | 33.27383 | -86.81653 | 1989 ft | 117 kts | 193° |
| 2026-04-25 01:36 | 33.26579 | -86.81788 | 1907 ft | 117 kts | 185° |
| 2026-04-25 01:37 | 33.25755 | -86.81778 | 1827 ft | 118 kts | 177° |
| 2026-04-25 01:37 | 33.24956 | -86.81683 | 1819 ft | 114 kts | 174° |
| 2026-04-25 01:37 | 33.24169 | -86.81511 | 1832 ft | 113 kts | 168° |
| 2026-04-25 01:37 | 33.23428 | -86.81233 | 1857 ft | 109 kts | 161° |
| 2026-04-25 01:38 | 33.22773 | -86.80876 | 1851 ft | 97 kts | 154° |
| 2026-04-25 01:38 | 33.22209 | -86.80522 | 1764 ft | 85 kts | 159° |
| 2026-04-25 01:38 | 33.21690 | -86.80276 | 1627 ft | 77 kts | 165° |
| 2026-04-25 01:38 | 33.21174 | -86.80058 | 1414 ft | 82 kts | 159° |
| 2026-04-25 01:39 | 33.20642 | -86.79778 | 1196 ft | 84 kts | 155° |
| 2026-04-25 01:39 | 33.20114 | -86.79500 | 1019 ft | 81 kts | 159° |
| 2026-04-25 01:39 | 33.19604 | -86.79251 | 900 ft | 79 kts | 159° |
| 2026-04-25 01:39 | 33.19110 | -86.78997 | 795 ft | 76 kts | 156° |
| 2026-04-25 01:40 | 33.18794 | -86.78823 | 731 ft | 72 kts | 159° |
| 2026-04-25 01:40 | 33.18271 | -86.78568 | 598 ft | 43 kts | 160° |
| 2026-04-25 01:40 | 33.18146 | -86.78500 | 584 ft | 17 kts | 173° |
| 2026-04-25 01:40 | 33.18063 | -86.78460 | 587 ft | 12 kts | 165° |
| 2026-04-25 01:41 | 33.17966 | -86.78395 | 623 ft | 22 kts | 154° |
| 2026-04-25 01:41 | 33.17816 | -86.78290 | 627 ft | 26 kts | 136° |
| 2026-04-25 01:41 | 33.17686 | -86.78175 | 609 ft | 20 kts | 134° |
| 2026-04-25 01:41 | 33.17625 | -86.78142 | 595 ft | 5 kts | 53° |
| 2026-04-25 01:42 | 33.17615 | -86.78148 | 611 ft | 2 kts | 69° |
| 2026-04-25 01:42 | 33.17630 | -86.78128 | 596 ft | 2 kts | 70° |
| 2026-04-25 01:42 | 33.17635 | -86.78133 | 591 ft | 0 kts | 72° |
| 2026-04-25 01:42 | 33.17636 | -86.78129 | 585 ft | 0 kts | 76° |
| 2026-04-25 01:43 | 33.17636 | -86.78128 | 585 ft | 0 kts | 71° |
| 2026-04-25 01:45 | 33.17630 | -86.78117 | 614 ft | 8 kts | 122° |
| 2026-04-25 01:45 | 33.17552 | -86.77936 | 723 ft | 49 kts | 98° |
| 2026-04-25 01:45 | 33.17572 | -86.77358 | 808 ft | 88 kts | 81° |
| 2026-04-25 01:46 | 33.17804 | -86.76558 | 907 ft | 114 kts | 60° |
| 2026-04-25 01:46 | 33.18392 | -86.75890 | 1072 ft | 124 kts | 24° |
| 2026-04-25 01:46 | 33.19245 | -86.75695 | 1231 ft | 128 kts | 356° |
| 2026-04-25 01:46 | 33.20116 | -86.75860 | 1349 ft | 129 kts | 339° |
| 2026-04-25 01:47 | 33.20954 | -86.76277 | 1430 ft | 129 kts | 330° |
| 2026-04-25 01:47 | 33.21756 | -86.76737 | 1508 ft | 125 kts | 327° |
| 2026-04-25 01:47 | 33.22502 | -86.77204 | 1607 ft | 119 kts | 324° |
| 2026-04-25 01:47 | 33.23217 | -86.77677 | 1633 ft | 116 kts | 323° |
| 2026-04-25 01:48 | 33.23909 | -86.78161 | 1607 ft | 115 kts | 323° |
| 2026-04-25 01:48 | 33.24599 | -86.78617 | 1622 ft | 115 kts | 329° |
| 2026-04-25 01:48 | 33.25385 | -86.78784 | 1620 ft | 117 kts | 1° |
| 2026-04-25 01:48 | 33.26129 | -86.78407 | 1623 ft | 118 kts | 37° |
| 2026-04-25 01:49 | 33.26684 | -86.77676 | 1625 ft | 119 kts | 56° |
| 2026-04-25 01:49 | 33.27104 | -86.76815 | 1622 ft | 120 kts | 62° |
| 2026-04-25 01:49 | 33.27500 | -86.75940 | 1621 ft | 122 kts | 60° |
| 2026-04-25 01:49 | 33.27940 | -86.75052 | 1621 ft | 123 kts | 58° |
| 2026-04-25 01:50 | 33.28403 | -86.74191 | 1620 ft | 124 kts | 57° |
| 2026-04-25 01:50 | 33.28893 | -86.73325 | 1618 ft | 125 kts | 55° |
| 2026-04-25 01:50 | 33.29392 | -86.72473 | 1622 ft | 125 kts | 54° |
| 2026-04-25 01:50 | 33.29901 | -86.71619 | 1623 ft | 126 kts | 54° |
| 2026-04-25 01:51 | 33.30412 | -86.70775 | 1619 ft | 126 kts | 54° |
| 2026-04-25 01:51 | 33.30937 | -86.69924 | 1622 ft | 127 kts | 53° |
| 2026-04-25 01:51 | 33.31464 | -86.69074 | 1623 ft | 127 kts | 53° |
| 2026-04-25 01:51 | 33.32031 | -86.68276 | 1618 ft | 127 kts | 39° |
| 2026-04-25 01:52 | 33.32763 | -86.67673 | 1622 ft | 126 kts | 30° |
| 2026-04-25 01:52 | 33.33524 | -86.67158 | 1619 ft | 127 kts | 26° |
| 2026-04-25 01:52 | 33.34293 | -86.66661 | 1618 ft | 126 kts | 26° |
| 2026-04-25 01:52 | 33.35066 | -86.66164 | 1615 ft | 126 kts | 26° |
| 2026-04-25 01:53 | 33.35837 | -86.65661 | 1619 ft | 127 kts | 27° |
| 2026-04-25 01:53 | 33.36631 | -86.65217 | 1626 ft | 126 kts | 19° |
| 2026-04-25 01:53 | 33.37470 | -86.64883 | 1625 ft | 126 kts | 15° |
| 2026-04-25 01:53 | 33.38303 | -86.64584 | 1625 ft | 125 kts | 14° |
| 2026-04-25 01:54 | 33.39141 | -86.64282 | 1625 ft | 125 kts | 14° |
| 2026-04-25 01:54 | 33.39985 | -86.64002 | 1628 ft | 125 kts | 11° |
| 2026-04-25 01:54 | 33.40829 | -86.63783 | 1627 ft | 125 kts | 9° |
| 2026-04-25 01:54 | 33.41690 | -86.63622 | 1627 ft | 125 kts | 2° |